sensor_id;sensor_type;location;lat;lon;timestamp;pressure;altitude;pressure_sealevel;temperature
68911;BMP180;55953;51.650;-0.522;2023-08-21T00:01:34;101484.40;;;16.90
68911;BMP180;55953;51.650;-0.522;2023-08-21T00:04:03;101490.60;;;16.80
68911;BMP180;55953;51.650;-0.522;2023-08-21T00:06:31;101488.80;;;16.80
68911;BMP180;55953;51.650;-0.522;2023-08-21T00:09:01;101489.00;;;16.80
68911;BMP180;55953;51.650;-0.522;2023-08-21T00:11:29;101492.20;;;16.80
68911;BMP180;55953;51.650;-0.522;2023-08-21T00:13:57;101492.80;;;16.80
68911;BMP180;55953;51.650;-0.522;2023-08-21T00:16:25;101492.20;;;16.70
68911;BMP180;55953;51.650;-0.522;2023-08-21T00:18:54;101495.00;;;16.70
68911;BMP180;55953;51.650;-0.522;2023-08-21T00:21:22;101494.60;;;16.60
68911;BMP180;55953;51.650;-0.522;2023-08-21T00:23:50;101492.60;;;16.60
68911;BMP180;55953;51.650;-0.522;2023-08-21T00:26:18;101485.60;;;16.60
68911;BMP180;55953;51.650;-0.522;2023-08-21T00:28:45;101483.40;;;16.52
68911;BMP180;55953;51.650;-0.522;2023-08-21T00:31:13;101484.40;;;16.50
68911;BMP180;55953;51.650;-0.522;2023-08-21T00:33:41;101479.60;;;16.50
68911;BMP180;55953;51.650;-0.522;2023-08-21T00:36:09;101480.60;;;16.50
68911;BMP180;55953;51.650;-0.522;2023-08-21T00:38:37;101483.40;;;16.50
68911;BMP180;55953;51.650;-0.522;2023-08-21T00:41:05;101484.80;;;16.50
68911;BMP180;55953;51.650;-0.522;2023-08-21T00:43:32;101487.60;;;16.46
68911;BMP180;55953;51.650;-0.522;2023-08-21T00:46:01;101486.20;;;16.50
68911;BMP180;55953;51.650;-0.522;2023-08-21T00:48:29;101482.20;;;16.50
68911;BMP180;55953;51.650;-0.522;2023-08-21T00:50:58;101488.40;;;16.50
68911;BMP180;55953;51.650;-0.522;2023-08-21T00:53:26;101485.80;;;16.50
68911;BMP180;55953;51.650;-0.522;2023-08-21T00:55:54;101484.80;;;16.40
68911;BMP180;55953;51.650;-0.522;2023-08-21T00:58:22;101490.60;;;16.40
68911;BMP180;55953;51.650;-0.522;2023-08-21T01:00:52;101490.60;;;16.40
68911;BMP180;55953;51.650;-0.522;2023-08-21T01:03:20;101489.00;;;16.40
68911;BMP180;55953;51.650;-0.522;2023-08-21T01:05:48;101489.20;;;16.30
68911;BMP180;55953;51.650;-0.522;2023-08-21T01:11:04;101486.00;;;16.30
68911;BMP180;55953;51.650;-0.522;2023-08-21T01:16:20;101493.20;;;16.30
68911;BMP180;55953;51.650;-0.522;2023-08-21T01:18:49;101486.80;;;16.26
68911;BMP180;55953;51.650;-0.522;2023-08-21T01:21:18;101492.80;;;16.20
68911;BMP180;55953;51.650;-0.522;2023-08-21T01:23:46;101490.80;;;16.28
68911;BMP180;55953;51.650;-0.522;2023-08-21T01:26:14;101493.80;;;16.20
68911;BMP180;55953;51.650;-0.522;2023-08-21T01:28:42;101492.00;;;16.20
68911;BMP180;55953;51.650;-0.522;2023-08-21T01:31:30;101491.00;;;16.20
68911;BMP180;55953;51.650;-0.522;2023-08-21T01:34:04;101489.20;;;16.20
68911;BMP180;55953;51.650;-0.522;2023-08-21T01:36:34;101487.20;;;16.20
68911;BMP180;55953;51.650;-0.522;2023-08-21T01:39:03;101488.00;;;16.18
68911;BMP180;55953;51.650;-0.522;2023-08-21T01:41:31;101483.20;;;16.18
68911;BMP180;55953;51.650;-0.522;2023-08-21T01:43:59;101488.40;;;16.20
68911;BMP180;55953;51.650;-0.522;2023-08-21T01:46:26;101477.40;;;16.18
68911;BMP180;55953;51.650;-0.522;2023-08-21T01:48:54;101481.80;;;16.18
68911;BMP180;55953;51.650;-0.522;2023-08-21T01:51:22;101485.60;;;16.20
68911;BMP180;55953;51.650;-0.522;2023-08-21T01:53:50;101487.00;;;16.10
68911;BMP180;55953;51.650;-0.522;2023-08-21T01:56:18;101485.40;;;16.10
68911;BMP180;55953;51.650;-0.522;2023-08-21T01:58:46;101487.00;;;16.08
68911;BMP180;55953;51.650;-0.522;2023-08-21T02:01:14;101489.20;;;16.02
68911;BMP180;55953;51.650;-0.522;2023-08-21T02:03:42;101491.60;;;16.06
68911;BMP180;55953;51.650;-0.522;2023-08-21T02:06:10;101490.80;;;16.10
68911;BMP180;55953;51.650;-0.522;2023-08-21T02:08:39;101494.20;;;16.08
68911;BMP180;55953;51.650;-0.522;2023-08-21T02:11:07;101494.20;;;16.10
68911;BMP180;55953;51.650;-0.522;2023-08-21T02:13:35;101490.60;;;16.10
68911;BMP180;55953;51.650;-0.522;2023-08-21T02:16:03;101495.00;;;16.10
68911;BMP180;55953;51.650;-0.522;2023-08-21T02:18:31;101500.80;;;16.16
68911;BMP180;55953;51.650;-0.522;2023-08-21T02:21:02;101495.80;;;16.20
68911;BMP180;55953;51.650;-0.522;2023-08-21T02:23:30;101496.00;;;16.20
68911;BMP180;55953;51.650;-0.522;2023-08-21T02:25:58;101503.00;;;16.20
68911;BMP180;55953;51.650;-0.522;2023-08-21T02:28:26;101506.80;;;16.20
68911;BMP180;55953;51.650;-0.522;2023-08-21T02:30:53;101495.20;;;16.20
68911;BMP180;55953;51.650;-0.522;2023-08-21T02:33:21;101501.60;;;16.20
68911;BMP180;55953;51.650;-0.522;2023-08-21T02:35:49;101505.40;;;16.20
68911;BMP180;55953;51.650;-0.522;2023-08-21T02:38:17;101499.40;;;16.20
68911;BMP180;55953;51.650;-0.522;2023-08-21T02:40:45;101499.00;;;16.20
68911;BMP180;55953;51.650;-0.522;2023-08-21T02:43:13;101497.40;;;16.20
68911;BMP180;55953;51.650;-0.522;2023-08-21T02:45:41;101499.00;;;16.20
68911;BMP180;55953;51.650;-0.522;2023-08-21T02:48:09;101503.60;;;16.20
68911;BMP180;55953;51.650;-0.522;2023-08-21T02:50:37;101500.60;;;16.20
68911;BMP180;55953;51.650;-0.522;2023-08-21T02:53:05;101504.20;;;16.20
68911;BMP180;55953;51.650;-0.522;2023-08-21T02:55:33;101504.40;;;16.20
68911;BMP180;55953;51.650;-0.522;2023-08-21T02:58:01;101501.00;;;16.20
68911;BMP180;55953;51.650;-0.522;2023-08-21T03:00:29;101496.60;;;16.30
68911;BMP180;55953;51.650;-0.522;2023-08-21T03:02:57;101503.80;;;16.24
68911;BMP180;55953;51.650;-0.522;2023-08-21T03:05:26;101507.20;;;16.20
68911;BMP180;55953;51.650;-0.522;2023-08-21T03:07:54;101503.60;;;16.20
68911;BMP180;55953;51.650;-0.522;2023-08-21T03:10:21;101497.40;;;16.16
68911;BMP180;55953;51.650;-0.522;2023-08-21T03:12:51;101497.40;;;16.20
68911;BMP180;55953;51.650;-0.522;2023-08-21T03:15:19;101496.00;;;16.20
68911;BMP180;55953;51.650;-0.522;2023-08-21T03:17:47;101503.20;;;16.20
68911;BMP180;55953;51.650;-0.522;2023-08-21T03:20:15;101505.80;;;16.20
68911;BMP180;55953;51.650;-0.522;2023-08-21T03:22:46;101511.40;;;16.26
68911;BMP180;55953;51.650;-0.522;2023-08-21T03:25:14;101510.20;;;16.20
68911;BMP180;55953;51.650;-0.522;2023-08-21T03:27:42;101513.60;;;16.30
68911;BMP180;55953;51.650;-0.522;2023-08-21T03:30:12;101514.60;;;16.40
68911;BMP180;55953;51.650;-0.522;2023-08-21T03:32:42;101516.00;;;16.40
68911;BMP180;55953;51.650;-0.522;2023-08-21T03:35:11;101513.20;;;16.32
68911;BMP180;55953;51.650;-0.522;2023-08-21T03:37:39;101512.00;;;16.30
68911;BMP180;55953;51.650;-0.522;2023-08-21T03:40:08;101515.40;;;16.30
68911;BMP180;55953;51.650;-0.522;2023-08-21T03:42:36;101510.20;;;16.24
68911;BMP180;55953;51.650;-0.522;2023-08-21T03:45:05;101515.80;;;16.20
68911;BMP180;55953;51.650;-0.522;2023-08-21T03:47:33;101518.40;;;16.20
68911;BMP180;55953;51.650;-0.522;2023-08-21T03:50:05;101517.00;;;16.20
68911;BMP180;55953;51.650;-0.522;2023-08-21T03:52:33;101520.80;;;16.20
68911;BMP180;55953;51.650;-0.522;2023-08-21T03:55:01;101520.00;;;16.20
68911;BMP180;55953;51.650;-0.522;2023-08-21T03:57:29;101517.20;;;16.10
68911;BMP180;55953;51.650;-0.522;2023-08-21T03:59:56;101522.40;;;16.12
68911;BMP180;55953;51.650;-0.522;2023-08-21T04:02:24;101521.60;;;16.10
68911;BMP180;55953;51.650;-0.522;2023-08-21T04:04:53;101525.00;;;16.10
68911;BMP180;55953;51.650;-0.522;2023-08-21T04:07:21;101530.80;;;16.16
68911;BMP180;55953;51.650;-0.522;2023-08-21T04:09:49;101528.40;;;16.20
68911;BMP180;55953;51.650;-0.522;2023-08-21T04:12:17;101533.40;;;16.20
68911;BMP180;55953;51.650;-0.522;2023-08-21T04:14:44;101531.00;;;16.20
68911;BMP180;55953;51.650;-0.522;2023-08-21T04:17:12;101528.00;;;16.20
68911;BMP180;55953;51.650;-0.522;2023-08-21T04:19:40;101531.00;;;16.20
68911;BMP180;55953;51.650;-0.522;2023-08-21T04:22:08;101526.20;;;16.26
68911;BMP180;55953;51.650;-0.522;2023-08-21T04:24:36;101530.00;;;16.30
68911;BMP180;55953;51.650;-0.522;2023-08-21T04:27:04;101529.60;;;16.36
68911;BMP180;55953;51.650;-0.522;2023-08-21T04:29:32;101529.20;;;16.40
68911;BMP180;55953;51.650;-0.522;2023-08-21T04:32:00;101529.00;;;16.40
68911;BMP180;55953;51.650;-0.522;2023-08-21T04:34:27;101531.40;;;16.40
68911;BMP180;55953;51.650;-0.522;2023-08-21T04:36:55;101531.60;;;16.40
68911;BMP180;55953;51.650;-0.522;2023-08-21T04:39:23;101533.80;;;16.40
68911;BMP180;55953;51.650;-0.522;2023-08-21T04:41:51;101532.00;;;16.40
68911;BMP180;55953;51.650;-0.522;2023-08-21T04:44:19;101534.40;;;16.40
68911;BMP180;55953;51.650;-0.522;2023-08-21T04:46:48;101532.00;;;16.30
68911;BMP180;55953;51.650;-0.522;2023-08-21T04:49:18;101531.80;;;16.40
68911;BMP180;55953;51.650;-0.522;2023-08-21T04:51:46;101533.00;;;16.50
68911;BMP180;55953;51.650;-0.522;2023-08-21T04:54:13;101530.80;;;16.50
68911;BMP180;55953;51.650;-0.522;2023-08-21T04:56:41;101533.40;;;16.60
68911;BMP180;55953;51.650;-0.522;2023-08-21T04:59:10;101526.40;;;16.60
68911;BMP180;55953;51.650;-0.522;2023-08-21T05:01:38;101530.60;;;16.50
68911;BMP180;55953;51.650;-0.522;2023-08-21T05:04:06;101529.00;;;16.50
68911;BMP180;55953;51.650;-0.522;2023-08-21T05:06:35;101528.00;;;16.60
68911;BMP180;55953;51.650;-0.522;2023-08-21T05:09:02;101527.00;;;16.60
68911;BMP180;55953;51.650;-0.522;2023-08-21T05:11:30;101533.60;;;16.70
68911;BMP180;55953;51.650;-0.522;2023-08-21T05:13:58;101541.00;;;16.60
68911;BMP180;55953;51.650;-0.522;2023-08-21T05:16:29;101537.80;;;16.70
68911;BMP180;55953;51.650;-0.522;2023-08-21T05:18:57;101531.40;;;16.70
68911;BMP180;55953;51.650;-0.522;2023-08-21T05:21:25;101536.20;;;16.70
68911;BMP180;55953;51.650;-0.522;2023-08-21T05:23:53;101536.20;;;16.62
68911;BMP180;55953;51.650;-0.522;2023-08-21T05:26:20;101540.60;;;16.62
68911;BMP180;55953;51.650;-0.522;2023-08-21T05:28:48;101542.00;;;16.70
68911;BMP180;55953;51.650;-0.522;2023-08-21T05:31:16;101540.00;;;16.70
68911;BMP180;55953;51.650;-0.522;2023-08-21T05:33:51;101548.40;;;16.70
68911;BMP180;55953;51.650;-0.522;2023-08-21T05:36:19;101550.20;;;16.70
68911;BMP180;55953;51.650;-0.522;2023-08-21T05:38:47;101548.40;;;16.70
68911;BMP180;55953;51.650;-0.522;2023-08-21T05:41:16;101554.20;;;16.70
68911;BMP180;55953;51.650;-0.522;2023-08-21T05:43:44;101555.00;;;16.70
68911;BMP180;55953;51.650;-0.522;2023-08-21T05:46:13;101557.40;;;16.70
68911;BMP180;55953;51.650;-0.522;2023-08-21T05:48:41;101561.60;;;16.70
68911;BMP180;55953;51.650;-0.522;2023-08-21T05:51:09;101568.00;;;16.72
68911;BMP180;55953;51.650;-0.522;2023-08-21T05:53:37;101568.20;;;16.70
68911;BMP180;55953;51.650;-0.522;2023-08-21T05:56:04;101572.20;;;16.80
68911;BMP180;55953;51.650;-0.522;2023-08-21T05:58:32;101562.20;;;16.86
68911;BMP180;55953;51.650;-0.522;2023-08-21T06:01:02;101558.80;;;16.88
68911;BMP180;55953;51.650;-0.522;2023-08-21T06:03:31;101565.40;;;16.80
68911;BMP180;55953;51.650;-0.522;2023-08-21T06:06:35;101562.20;;;16.90
68911;BMP180;55953;51.650;-0.522;2023-08-21T06:09:03;101566.80;;;17.00
68911;BMP180;55953;51.650;-0.522;2023-08-21T06:11:30;101571.40;;;17.00
68911;BMP180;55953;51.650;-0.522;2023-08-21T06:13:58;101575.60;;;17.00
68911;BMP180;55953;51.650;-0.522;2023-08-21T06:16:26;101574.00;;;17.00
68911;BMP180;55953;51.650;-0.522;2023-08-21T06:18:54;101567.80;;;17.08
68911;BMP180;55953;51.650;-0.522;2023-08-21T06:21:22;101569.20;;;17.00
68911;BMP180;55953;51.650;-0.522;2023-08-21T06:23:50;101574.20;;;17.00
68911;BMP180;55953;51.650;-0.522;2023-08-21T06:26:18;101571.20;;;17.00
68911;BMP180;55953;51.650;-0.522;2023-08-21T06:28:45;101583.20;;;17.10
68911;BMP180;55953;51.650;-0.522;2023-08-21T06:31:15;101583.40;;;17.10
68911;BMP180;55953;51.650;-0.522;2023-08-21T06:33:42;101583.80;;;17.20
68911;BMP180;55953;51.650;-0.522;2023-08-21T06:36:11;101583.00;;;17.20
68911;BMP180;55953;51.650;-0.522;2023-08-21T06:38:39;101584.60;;;17.20
68911;BMP180;55953;51.650;-0.522;2023-08-21T06:41:07;101584.00;;;17.20
68911;BMP180;55953;51.650;-0.522;2023-08-21T06:43:39;101580.20;;;17.30
68911;BMP180;55953;51.650;-0.522;2023-08-21T06:46:13;101575.80;;;17.30
68911;BMP180;55953;51.650;-0.522;2023-08-21T06:48:42;101574.00;;;17.40
68911;BMP180;55953;51.650;-0.522;2023-08-21T06:51:11;101565.40;;;17.60
68911;BMP180;55953;51.650;-0.522;2023-08-21T06:53:43;101565.40;;;17.62
68911;BMP180;55953;51.650;-0.522;2023-08-21T06:56:11;101564.60;;;17.80
68911;BMP180;55953;51.650;-0.522;2023-08-21T06:58:39;101564.40;;;17.90
68911;BMP180;55953;51.650;-0.522;2023-08-21T07:01:07;101567.40;;;18.04
68911;BMP180;55953;51.650;-0.522;2023-08-21T07:03:34;101574.40;;;18.20
68911;BMP180;55953;51.650;-0.522;2023-08-21T07:06:02;101578.80;;;18.40
68911;BMP180;55953;51.650;-0.522;2023-08-21T07:08:33;101575.20;;;18.40
68911;BMP180;55953;51.650;-0.522;2023-08-21T07:11:03;101573.80;;;18.46
68911;BMP180;55953;51.650;-0.522;2023-08-21T07:13:32;101575.60;;;18.58
68911;BMP180;55953;51.650;-0.522;2023-08-21T07:16:00;101577.00;;;18.60
68911;BMP180;55953;51.650;-0.522;2023-08-21T07:18:33;101574.60;;;18.70
68911;BMP180;55953;51.650;-0.522;2023-08-21T07:21:02;101576.20;;;18.70
68911;BMP180;55953;51.650;-0.522;2023-08-21T07:23:45;101574.40;;;18.70
68911;BMP180;55953;51.650;-0.522;2023-08-21T07:26:13;101573.80;;;18.68
68911;BMP180;55953;51.650;-0.522;2023-08-21T07:28:40;101577.20;;;18.62
68911;BMP180;55953;51.650;-0.522;2023-08-21T07:31:08;101583.40;;;18.60
68911;BMP180;55953;51.650;-0.522;2023-08-21T07:33:36;101575.80;;;18.70
68911;BMP180;55953;51.650;-0.522;2023-08-21T07:36:05;101579.80;;;18.90
68911;BMP180;55953;51.650;-0.522;2023-08-21T07:38:33;101577.80;;;18.90
68911;BMP180;55953;51.650;-0.522;2023-08-21T07:41:07;101578.60;;;18.80
68911;BMP180;55953;51.650;-0.522;2023-08-21T07:43:41;101578.80;;;18.90
68911;BMP180;55953;51.650;-0.522;2023-08-21T07:46:12;101578.20;;;18.86
68911;BMP180;55953;51.650;-0.522;2023-08-21T07:48:44;101583.00;;;18.94
68911;BMP180;55953;51.650;-0.522;2023-08-21T07:51:13;101584.80;;;19.06
68911;BMP180;55953;51.650;-0.522;2023-08-21T07:53:41;101578.80;;;19.10
68911;BMP180;55953;51.650;-0.522;2023-08-21T07:56:09;101577.80;;;19.20
68911;BMP180;55953;51.650;-0.522;2023-08-21T07:58:36;101576.40;;;19.20
68911;BMP180;55953;51.650;-0.522;2023-08-21T08:01:04;101576.00;;;19.30
68911;BMP180;55953;51.650;-0.522;2023-08-21T08:03:32;101583.00;;;19.40
68911;BMP180;55953;51.650;-0.522;2023-08-21T08:06:00;101573.80;;;19.40
68911;BMP180;55953;51.650;-0.522;2023-08-21T08:08:28;101573.40;;;19.50
68911;BMP180;55953;51.650;-0.522;2023-08-21T08:11:02;101565.40;;;19.60
68911;BMP180;55953;51.650;-0.522;2023-08-21T08:13:31;101565.40;;;19.68
68911;BMP180;55953;51.650;-0.522;2023-08-21T08:15:59;101558.60;;;19.80
68911;BMP180;55953;51.650;-0.522;2023-08-21T08:18:28;101562.00;;;19.90
68911;BMP180;55953;51.650;-0.522;2023-08-21T08:20:56;101560.40;;;19.90
68911;BMP180;55953;51.650;-0.522;2023-08-21T08:23:24;101557.80;;;19.90
68911;BMP180;55953;51.650;-0.522;2023-08-21T08:25:52;101552.80;;;19.90
68911;BMP180;55953;51.650;-0.522;2023-08-21T08:28:20;101562.80;;;20.00
68911;BMP180;55953;51.650;-0.522;2023-08-21T08:30:48;101563.40;;;20.10
68911;BMP180;55953;51.650;-0.522;2023-08-21T08:33:16;101560.20;;;20.10
68911;BMP180;55953;51.650;-0.522;2023-08-21T08:35:44;101565.40;;;20.20
68911;BMP180;55953;51.650;-0.522;2023-08-21T08:38:12;101568.00;;;20.20
68911;BMP180;55953;51.650;-0.522;2023-08-21T08:40:46;101567.20;;;20.30
68911;BMP180;55953;51.650;-0.522;2023-08-21T08:43:14;101564.20;;;20.40
68911;BMP180;55953;51.650;-0.522;2023-08-21T08:45:47;101566.00;;;20.50
68911;BMP180;55953;51.650;-0.522;2023-08-21T08:48:16;101564.40;;;20.60
68911;BMP180;55953;51.650;-0.522;2023-08-21T08:50:47;101558.20;;;20.70
68911;BMP180;55953;51.650;-0.522;2023-08-21T08:53:15;101555.80;;;20.92
68911;BMP180;55953;51.650;-0.522;2023-08-21T08:55:45;101558.80;;;21.12
68911;BMP180;55953;51.650;-0.522;2023-08-21T08:58:13;101558.00;;;21.30
68911;BMP180;55953;51.650;-0.522;2023-08-21T09:00:41;101555.60;;;21.30
68911;BMP180;55953;51.650;-0.522;2023-08-21T09:03:09;101559.00;;;21.50
68911;BMP180;55953;51.650;-0.522;2023-08-21T09:05:39;101558.00;;;21.50
68911;BMP180;55953;51.650;-0.522;2023-08-21T09:10:38;101559.80;;;21.60
68911;BMP180;55953;51.650;-0.522;2023-08-21T09:13:17;101559.40;;;21.40
68911;BMP180;55953;51.650;-0.522;2023-08-21T09:15:53;101563.20;;;21.30
68911;BMP180;55953;51.650;-0.522;2023-08-21T09:18:21;101563.80;;;21.10
68911;BMP180;55953;51.650;-0.522;2023-08-21T09:20:49;101562.20;;;20.80
68911;BMP180;55953;51.650;-0.522;2023-08-21T09:23:18;101556.80;;;20.80
68911;BMP180;55953;51.650;-0.522;2023-08-21T09:25:48;101557.80;;;20.70
68911;BMP180;55953;51.650;-0.522;2023-08-21T09:28:20;101555.40;;;20.70
68911;BMP180;55953;51.650;-0.522;2023-08-21T09:30:52;101551.20;;;20.70
68911;BMP180;55953;51.650;-0.522;2023-08-21T09:33:23;101558.20;;;20.80
68911;BMP180;55953;51.650;-0.522;2023-08-21T09:35:52;101557.00;;;20.72
68911;BMP180;55953;51.650;-0.522;2023-08-21T09:38:22;101563.60;;;20.80
68911;BMP180;55953;51.650;-0.522;2023-08-21T09:40:55;101562.80;;;20.80
68911;BMP180;55953;51.650;-0.522;2023-08-21T09:43:24;101565.40;;;20.80
68911;BMP180;55953;51.650;-0.522;2023-08-21T09:45:54;101555.00;;;20.70
68911;BMP180;55953;51.650;-0.522;2023-08-21T09:48:26;101561.80;;;20.86
68911;BMP180;55953;51.650;-0.522;2023-08-21T09:51:00;101565.80;;;21.08
68911;BMP180;55953;51.650;-0.522;2023-08-21T09:53:32;101561.60;;;21.30
68911;BMP180;55953;51.650;-0.522;2023-08-21T09:56:01;101559.00;;;21.30
68911;BMP180;55953;51.650;-0.522;2023-08-21T09:58:31;101560.20;;;21.40
68911;BMP180;55953;51.650;-0.522;2023-08-21T10:00:59;101560.60;;;21.30
68911;BMP180;55953;51.650;-0.522;2023-08-21T10:03:29;101559.40;;;21.30
68911;BMP180;55953;51.650;-0.522;2023-08-21T10:05:58;101559.20;;;21.12
68911;BMP180;55953;51.650;-0.522;2023-08-21T10:08:27;101553.60;;;21.06
68911;BMP180;55953;51.650;-0.522;2023-08-21T10:10:57;101546.60;;;21.18
68911;BMP180;55953;51.650;-0.522;2023-08-21T10:13:32;101547.00;;;21.34
68911;BMP180;55953;51.650;-0.522;2023-08-21T10:16:01;101549.00;;;21.40
68911;BMP180;55953;51.650;-0.522;2023-08-21T10:18:32;101543.00;;;21.46
68911;BMP180;55953;51.650;-0.522;2023-08-21T10:21:21;101543.20;;;21.58
68911;BMP180;55953;51.650;-0.522;2023-08-21T10:23:54;101534.20;;;21.78
68911;BMP180;55953;51.650;-0.522;2023-08-21T10:26:26;101532.60;;;21.90
68911;BMP180;55953;51.650;-0.522;2023-08-21T10:29:02;101531.40;;;22.00
68911;BMP180;55953;51.650;-0.522;2023-08-21T10:31:39;101539.60;;;22.04
68911;BMP180;55953;51.650;-0.522;2023-08-21T10:34:14;101532.80;;;22.02
68911;BMP180;55953;51.650;-0.522;2023-08-21T10:42:09;101532.60;;;22.00
68911;BMP180;55953;51.650;-0.522;2023-08-21T10:47:43;101537.60;;;22.10
68911;BMP180;55953;51.650;-0.522;2023-08-21T10:50:12;101539.80;;;22.10
68911;BMP180;55953;51.650;-0.522;2023-08-21T10:52:42;101538.00;;;22.06
68911;BMP180;55953;51.650;-0.522;2023-08-21T10:55:15;101535.20;;;21.90
68911;BMP180;55953;51.650;-0.522;2023-08-21T10:57:43;101532.40;;;21.90
68911;BMP180;55953;51.650;-0.522;2023-08-21T11:00:14;101532.60;;;22.00
68911;BMP180;55953;51.650;-0.522;2023-08-21T11:02:47;101528.00;;;22.00
68911;BMP180;55953;51.650;-0.522;2023-08-21T11:05:16;101526.00;;;22.00
68911;BMP180;55953;51.650;-0.522;2023-08-21T11:07:48;101520.20;;;22.10
68911;BMP180;55953;51.650;-0.522;2023-08-21T11:10:23;101516.00;;;22.20
68911;BMP180;55953;51.650;-0.522;2023-08-21T11:12:54;101511.00;;;22.20
68911;BMP180;55953;51.650;-0.522;2023-08-21T11:15:28;101515.00;;;22.10
68911;BMP180;55953;51.650;-0.522;2023-08-21T11:17:59;101521.20;;;22.10
68911;BMP180;55953;51.650;-0.522;2023-08-21T11:20:34;101518.20;;;22.10
68911;BMP180;55953;51.650;-0.522;2023-08-21T11:23:06;101511.60;;;22.14
68911;BMP180;55953;51.650;-0.522;2023-08-21T11:25:38;101509.80;;;22.20
68911;BMP180;55953;51.650;-0.522;2023-08-21T11:28:07;101507.60;;;22.30
68911;BMP180;55953;51.650;-0.522;2023-08-21T11:30:36;101502.40;;;22.48
68911;BMP180;55953;51.650;-0.522;2023-08-21T11:33:07;101503.40;;;22.70
68911;BMP180;55953;51.650;-0.522;2023-08-21T11:35:36;101498.00;;;22.80
68911;BMP180;55953;51.650;-0.522;2023-08-21T11:38:06;101495.60;;;22.80
68911;BMP180;55953;51.650;-0.522;2023-08-21T11:40:36;101492.40;;;22.82
68911;BMP180;55953;51.650;-0.522;2023-08-21T11:43:04;101489.80;;;23.00
68911;BMP180;55953;51.650;-0.522;2023-08-21T11:45:36;101489.40;;;23.10
68911;BMP180;55953;51.650;-0.522;2023-08-21T11:48:24;101488.40;;;23.20
68911;BMP180;55953;51.650;-0.522;2023-08-21T11:50:53;101487.20;;;23.22
68911;BMP180;55953;51.650;-0.522;2023-08-21T11:53:35;101478.60;;;23.40
68911;BMP180;55953;51.650;-0.522;2023-08-21T11:56:13;101475.60;;;23.40
68911;BMP180;55953;51.650;-0.522;2023-08-21T11:58:44;101478.00;;;23.40
68911;BMP180;55953;51.650;-0.522;2023-08-21T12:01:20;101481.40;;;23.30
68911;BMP180;55953;51.650;-0.522;2023-08-21T12:03:48;101470.60;;;23.00
68911;BMP180;55953;51.650;-0.522;2023-08-21T12:06:24;101474.20;;;22.88
68911;BMP180;55953;51.650;-0.522;2023-08-21T12:08:54;101477.20;;;22.80
68911;BMP180;55953;51.650;-0.522;2023-08-21T12:11:21;101468.60;;;22.68
68911;BMP180;55953;51.650;-0.522;2023-08-21T12:13:50;101477.60;;;22.60
68911;BMP180;55953;51.650;-0.522;2023-08-21T12:16:19;101478.80;;;22.54
68911;BMP180;55953;51.650;-0.522;2023-08-21T12:18:47;101479.80;;;22.60
68911;BMP180;55953;51.650;-0.522;2023-08-21T12:21:15;101475.20;;;22.50
68911;BMP180;55953;51.650;-0.522;2023-08-21T12:23:43;101473.60;;;22.40
68911;BMP180;55953;51.650;-0.522;2023-08-21T12:26:11;101468.20;;;22.60
68911;BMP180;55953;51.650;-0.522;2023-08-21T12:28:38;101461.00;;;22.86
68911;BMP180;55953;51.650;-0.522;2023-08-21T12:31:06;101465.60;;;23.10
68911;BMP180;55953;51.650;-0.522;2023-08-21T12:33:34;101459.00;;;23.40
68911;BMP180;55953;51.650;-0.522;2023-08-21T12:36:02;101454.60;;;23.56
68911;BMP180;55953;51.650;-0.522;2023-08-21T12:38:31;101447.20;;;23.70
68911;BMP180;55953;51.650;-0.522;2023-08-21T12:41:02;101444.00;;;24.00
68911;BMP180;55953;51.650;-0.522;2023-08-21T12:43:30;101443.20;;;24.20
68911;BMP180;55953;51.650;-0.522;2023-08-21T12:45:58;101447.60;;;24.30
68911;BMP180;55953;51.650;-0.522;2023-08-21T12:48:26;101448.80;;;24.20
68911;BMP180;55953;51.650;-0.522;2023-08-21T12:50:54;101436.80;;;24.20
68911;BMP180;55953;51.650;-0.522;2023-08-21T12:53:22;101433.40;;;24.06
68911;BMP180;55953;51.650;-0.522;2023-08-21T12:55:50;101429.00;;;24.14
68911;BMP180;55953;51.650;-0.522;2023-08-21T12:58:18;101426.00;;;24.20
68911;BMP180;55953;51.650;-0.522;2023-08-21T13:00:46;101429.60;;;24.36
68911;BMP180;55953;51.650;-0.522;2023-08-21T13:03:14;101426.40;;;24.58
68911;BMP180;55953;51.650;-0.522;2023-08-21T13:05:42;101430.20;;;24.88
68911;BMP180;55953;51.650;-0.522;2023-08-21T13:08:10;101426.20;;;25.20
68911;BMP180;55953;51.650;-0.522;2023-08-21T13:10:38;101426.20;;;25.10
68911;BMP180;55953;51.650;-0.522;2023-08-21T13:13:06;101422.80;;;25.18
68911;BMP180;55953;51.650;-0.522;2023-08-21T13:15:34;101425.40;;;25.20
68911;BMP180;55953;51.650;-0.522;2023-08-21T13:18:02;101424.40;;;25.00
68911;BMP180;55953;51.650;-0.522;2023-08-21T13:20:30;101423.60;;;25.12
68911;BMP180;55953;51.650;-0.522;2023-08-21T13:22:58;101417.20;;;25.48
68911;BMP180;55953;51.650;-0.522;2023-08-21T13:25:26;101415.80;;;25.70
68911;BMP180;55953;51.650;-0.522;2023-08-21T13:27:54;101421.40;;;25.98
68911;BMP180;55953;51.650;-0.522;2023-08-21T13:30:22;101419.60;;;25.88
68911;BMP180;55953;51.650;-0.522;2023-08-21T13:32:50;101416.00;;;25.70
68911;BMP180;55953;51.650;-0.522;2023-08-21T13:35:18;101413.60;;;25.60
68911;BMP180;55953;51.650;-0.522;2023-08-21T13:37:49;101411.40;;;25.30
68911;BMP180;55953;51.650;-0.522;2023-08-21T13:40:17;101416.20;;;25.50
68911;BMP180;55953;51.650;-0.522;2023-08-21T13:42:47;101419.20;;;25.60
68911;BMP180;55953;51.650;-0.522;2023-08-21T13:45:18;101418.00;;;25.46
68911;BMP180;55953;51.650;-0.522;2023-08-21T13:47:48;101413.80;;;25.72
68911;BMP180;55953;51.650;-0.522;2023-08-21T13:50:18;101411.00;;;26.08
68911;BMP180;55953;51.650;-0.522;2023-08-21T13:52:47;101408.60;;;25.94
68911;BMP180;55953;51.650;-0.522;2023-08-21T13:55:16;101410.20;;;25.80
68911;BMP180;55953;51.650;-0.522;2023-08-21T13:57:45;101403.40;;;25.64
68911;BMP180;55953;51.650;-0.522;2023-08-21T14:00:14;101404.00;;;25.60
68911;BMP180;55953;51.650;-0.522;2023-08-21T14:02:45;101405.40;;;25.60
68911;BMP180;55953;51.650;-0.522;2023-08-21T14:05:13;101396.40;;;25.64
68911;BMP180;55953;51.650;-0.522;2023-08-21T14:07:42;101394.80;;;25.60
68911;BMP180;55953;51.650;-0.522;2023-08-21T14:10:10;101398.60;;;25.50
68911;BMP180;55953;51.650;-0.522;2023-08-21T14:12:38;101390.20;;;25.30